Stoneybreak, Pennsylvania
Current Conditions -  °F | °C
As of 7:53 AM on Thursday 18 Dec 2014 (Local Time) from KHGR Reporting Station
Overcast Overcast  
Wind Chill: 24°   Ceiling: 3300
Heat Index: 32°   Visibility: 10mi
Dew Point: 19°   Wind: 9mph
Humidity: 59%   Direction: 300°WNW
Pressure: 30.13"   Gusts: NA
Location:  39.7745°N, 78.2026°W
Report Text: KHGR 181253Z 30008KT 10SM OVC033 00/M07 A3013 RMK AO2 SLP221 T00001072
Loading
Personal Weather Stations






























Interactive Weather Map New forecast layout! Learn more

10-Day Weather Forecast

Advertisements
Track Severe Weather on mobile